createdAt,value
2018-07-25T00:02:14.259Z,6.1
2018-07-25T00:12:13.849Z,6.7
2018-07-25T00:22:13.422Z,5.5
2018-07-25T00:32:12.967Z,6.5
2018-07-25T00:42:12.480Z,5.7
2018-07-25T00:52:12.139Z,6.7
2018-07-25T01:02:11.707Z,6.5
2018-07-25T01:12:11.247Z,6.4
2018-07-25T01:22:13.500Z,6.4
2018-07-25T01:32:15.081Z,6.4
2018-07-25T01:42:22.579Z,6.3
2018-07-25T01:52:29.329Z,7
2018-07-25T02:02:29.312Z,6.5
2018-07-25T02:12:34.582Z,6.3
2018-07-25T02:22:43.187Z,6.7
2018-07-25T02:32:44.495Z,6.6
2018-07-25T02:42:44.153Z,5.7
2018-07-25T02:52:49.957Z,6.9
2018-07-25T03:02:58.645Z,6.8
2018-07-25T03:13:03.214Z,6.5
2018-07-25T03:23:03.851Z,7.6
2018-07-25T03:33:09.025Z,6.8
2018-07-25T03:43:15.619Z,5.5
2018-07-25T03:53:17.724Z,6.6
2018-07-25T04:03:21.319Z,6
2018-07-25T04:13:24.146Z,6.7
2018-07-25T04:23:33.139Z,6.5
2018-07-25T04:33:33.330Z,7.3
2018-07-25T04:43:33.970Z,7
2018-07-25T04:53:36.678Z,6
2018-07-25T05:03:37.518Z,5.6
2018-07-25T05:13:46.336Z,5.8
2018-07-25T05:23:58.999Z,6.1
2018-07-25T05:34:06.228Z,4.4
2018-07-25T05:44:13.447Z,5.4
2018-07-25T05:54:28.467Z,4.6
2018-07-25T06:04:36.568Z,4.8
2018-07-25T06:14:52.001Z,4.2
2018-07-25T06:25:01.805Z,4
2018-07-25T06:35:23.386Z,4.3
2018-07-25T06:45:34.257Z,4.5
2018-07-25T06:55:35.704Z,3.6
2018-07-25T07:05:53.209Z,3.8
2018-07-25T07:15:56.138Z,3.3
2018-07-25T07:26:06.120Z,4
2018-07-25T07:36:28.119Z,4.1
2018-07-25T07:46:43.297Z,3.8
2018-07-25T07:56:55.417Z,3.5
2018-07-25T08:07:05.130Z,4.3
2018-07-25T08:17:12.383Z,3.6
2018-07-25T08:27:24.842Z,3.8
2018-07-25T08:37:40.434Z,3.8
2018-07-25T08:47:50.342Z,3.2
2018-07-25T08:57:59.740Z,4
2018-07-25T09:08:13.226Z,4.1
2018-07-25T09:18:26.645Z,3.7
2018-07-25T09:28:45.007Z,3.5
2018-07-25T09:38:59.236Z,4.4
2018-07-25T09:49:12.586Z,3.6
2018-07-25T09:59:27.767Z,3.7
2018-07-25T10:09:45.574Z,3.4
2018-07-25T10:20:06.952Z,2.9
2018-07-25T10:30:28.810Z,2.8
2018-07-25T10:40:41.972Z,3.4
2018-07-25T10:50:51.171Z,2.8
2018-07-25T11:01:03.741Z,3.1
2018-07-25T11:11:15.702Z,3.1
2018-07-25T11:21:30.056Z,4
2018-07-25T11:31:37.589Z,4.2
2018-07-25T11:41:49.934Z,3.8
2018-07-25T11:51:54.253Z,4
2018-07-25T12:01:55.140Z,4.1
2018-07-25T12:11:59.309Z,4.1
2018-07-25T12:22:03.075Z,3.8
2018-07-25T12:32:06.338Z,3.9
2018-07-25T12:42:17.472Z,3.9
2018-07-25T12:52:32.983Z,3.4
2018-07-25T13:02:50.199Z,3.9
2018-07-25T13:13:10.927Z,3.5
2018-07-25T13:23:23.023Z,3.5
2018-07-25T13:33:37.965Z,3.9
2018-07-25T13:43:48.595Z,3.4
2018-07-25T13:54:06.733Z,2.8
2018-07-25T14:04:19.167Z,3.5
2018-07-25T14:14:25.733Z,3.5
2018-07-25T14:24:39.802Z,3.5
2018-07-25T14:35:03.914Z,3.9
2018-07-25T14:45:09.926Z,3.3
2018-07-25T14:55:16.953Z,2.9
2018-07-25T15:05:29.390Z,3.5
2018-07-25T15:15:32.193Z,3.1
2018-07-25T15:25:44.034Z,4
2018-07-25T15:35:48.826Z,3.6
2018-07-25T15:45:54.061Z,4
2018-07-25T15:56:02.385Z,3.7
2018-07-25T16:06:12.904Z,3.5
2018-07-25T16:16:19.167Z,3.2
2018-07-25T16:26:23.394Z,3.9
2018-07-25T16:36:27.376Z,4.8
2018-07-25T16:46:37.741Z,3.2
2018-07-25T16:56:42.141Z,3.4
2018-07-25T17:06:46.945Z,3.7
2018-07-25T17:16:52.061Z,3.4
2018-07-25T17:26:58.220Z,3.7
2018-07-25T17:37:04.012Z,3.7
2018-07-25T17:47:10.038Z,3.6
2018-07-25T17:57:17.080Z,4.1
2018-07-25T18:07:22.434Z,3.7
2018-07-25T18:17:28.307Z,3.4
2018-07-25T18:27:35.577Z,5.2
2018-07-25T18:37:40.773Z,4.7
2018-07-25T18:47:47.910Z,3.9
2018-07-25T18:57:50.506Z,3.6
2018-07-25T19:07:51.023Z,4.7
2018-07-25T19:17:50.632Z,4.3
2018-07-25T19:27:53.283Z,5.2
2018-07-25T19:37:59.468Z,4.6
2018-07-25T19:48:07.395Z,4.9
2018-07-25T19:58:08.260Z,6.1
2018-07-25T20:08:07.868Z,5.4
2018-07-25T20:18:14.057Z,5.5
2018-07-25T20:28:14.459Z,4.2
2018-07-25T20:38:21.723Z,3.9
2018-07-25T20:48:25.569Z,4.2
2018-07-25T20:58:35.861Z,4.1
2018-07-25T21:08:42.642Z,4.1
2018-07-25T21:18:52.091Z,3.7
2018-07-25T21:29:15.621Z,3.4
2018-07-25T21:39:23.060Z,3.4
2018-07-25T21:49:50.632Z,2.9
2018-07-25T22:00:07.326Z,2.8
2018-07-25T22:10:18.470Z,3
2018-07-25T22:20:41.971Z,3.7
2018-07-25T22:30:56.629Z,2.7
2018-07-25T22:41:16.116Z,2.3
2018-07-25T22:51:31.740Z,2.8
2018-07-25T23:01:50.064Z,3.1
2018-07-25T23:12:03.945Z,3.4
2018-07-25T23:22:16.573Z,3
2018-07-25T23:32:21.556Z,2.7
2018-07-25T23:42:33.041Z,2.9
2018-07-25T23:52:59.772Z,2.8
